sensor_id;sensor_type;location;lat;lon;timestamp;pressure;altitude;pressure_sealevel;temperature;humidity
55914;BME280;58179;48.776;9.124;2023-02-28T00:00:25;97995.63;;;-2.21;100.00
55914;BME280;58179;48.776;9.124;2023-02-28T00:02:51;97996.56;;;-2.22;100.00
55914;BME280;58179;48.776;9.124;2023-02-28T00:05:20;97997.69;;;-2.25;100.00
55914;BME280;58179;48.776;9.124;2023-02-28T00:07:47;97996.09;;;-2.26;100.00
55914;BME280;58179;48.776;9.124;2023-02-28T00:10:16;98000.63;;;-2.28;100.00
55914;BME280;58179;48.776;9.124;2023-02-28T00:12:46;97992.97;;;-2.29;100.00
55914;BME280;58179;48.776;9.124;2023-02-28T00:15:13;97986.97;;;-2.30;100.00
55914;BME280;58179;48.776;9.124;2023-02-28T00:17:39;97992.16;;;-2.30;100.00
55914;BME280;58179;48.776;9.124;2023-02-28T00:20:07;97995.06;;;-2.33;100.00
55914;BME280;58179;48.776;9.124;2023-02-28T00:22:34;97996.06;;;-2.34;100.00
55914;BME280;58179;48.776;9.124;2023-02-28T00:25:00;97990.34;;;-2.38;100.00
55914;BME280;58179;48.776;9.124;2023-02-28T00:27:26;97997.31;;;-2.38;100.00
55914;BME280;58179;48.776;9.124;2023-02-28T00:29:52;97991.63;;;-2.42;100.00
55914;BME280;58179;48.776;9.124;2023-02-28T00:32:21;97996.16;;;-2.44;100.00
55914;BME280;58179;48.776;9.124;2023-02-28T00:34:47;97992.91;;;-2.46;100.00
55914;BME280;58179;48.776;9.124;2023-02-28T00:37:13;97988.53;;;-2.45;100.00
55914;BME280;58179;48.776;9.124;2023-02-28T00:39:39;97992.22;;;-2.48;100.00
55914;BME280;58179;48.776;9.124;2023-02-28T00:42:06;98000.19;;;-2.49;100.00
55914;BME280;58179;48.776;9.124;2023-02-28T00:44:32;97989.16;;;-2.51;100.00
55914;BME280;58179;48.776;9.124;2023-02-28T00:46:59;97999.38;;;-2.50;100.00
55914;BME280;58179;48.776;9.124;2023-02-28T00:49:27;97995.44;;;-2.54;100.00
55914;BME280;58179;48.776;9.124;2023-02-28T00:51:54;97992.84;;;-2.54;100.00
55914;BME280;58179;48.776;9.124;2023-02-28T00:54:21;97987.19;;;-2.57;100.00
55914;BME280;58179;48.776;9.124;2023-02-28T00:56:47;97988.44;;;-2.61;100.00
55914;BME280;58179;48.776;9.124;2023-02-28T00:59:13;97994.44;;;-2.61;100.00
55914;BME280;58179;48.776;9.124;2023-02-28T01:01:40;97981.63;;;-2.62;100.00
55914;BME280;58179;48.776;9.124;2023-02-28T01:04:07;97989.25;;;-2.61;100.00
55914;BME280;58179;48.776;9.124;2023-02-28T01:06:34;97985.84;;;-2.61;100.00
55914;BME280;58179;48.776;9.124;2023-02-28T01:09:02;97984.06;;;-2.61;100.00
55914;BME280;58179;48.776;9.124;2023-02-28T01:11:28;97988.59;;;-2.63;100.00
55914;BME280;58179;48.776;9.124;2023-02-28T01:13:54;97987.94;;;-2.65;100.00
55914;BME280;58179;48.776;9.124;2023-02-28T01:16:20;97983.72;;;-2.66;100.00
55914;BME280;58179;48.776;9.124;2023-02-28T01:18:45;97985.50;;;-2.66;100.00
55914;BME280;58179;48.776;9.124;2023-02-28T01:21:14;97985.50;;;-2.66;100.00
55914;BME280;58179;48.776;9.124;2023-02-28T01:23:42;97980.59;;;-2.69;100.00
55914;BME280;58179;48.776;9.124;2023-02-28T01:26:12;97979.78;;;-2.70;100.00
55914;BME280;58179;48.776;9.124;2023-02-28T01:28:38;97978.03;;;-2.69;100.00
55914;BME280;58179;48.776;9.124;2023-02-28T01:31:05;97972.84;;;-2.69;100.00
55914;BME280;58179;48.776;9.124;2023-02-28T01:33:31;97975.75;;;-2.72;100.00
55914;BME280;58179;48.776;9.124;2023-02-28T01:36:01;97978.19;;;-2.71;100.00
55914;BME280;58179;48.776;9.124;2023-02-28T01:38:27;97977.38;;;-2.71;100.00
55914;BME280;58179;48.776;9.124;2023-02-28T01:40:54;97976.72;;;-2.74;100.00
55914;BME280;58179;48.776;9.124;2023-02-28T01:43:24;97981.91;;;-2.74;100.00
55914;BME280;58179;48.776;9.124;2023-02-28T01:45:51;97983.66;;;-2.74;100.00
55914;BME280;58179;48.776;9.124;2023-02-28T01:48:17;97981.09;;;-2.74;100.00
55914;BME280;58179;48.776;9.124;2023-02-28T01:50:45;97972.78;;;-2.78;100.00
55914;BME280;58179;48.776;9.124;2023-02-28T01:53:15;97970.38;;;-2.79;100.00
55914;BME280;58179;48.776;9.124;2023-02-28T01:55:47;97968.41;;;-2.77;100.00
55914;BME280;58179;48.776;9.124;2023-02-28T01:58:16;97964.19;;;-2.78;100.00
55914;BME280;58179;48.776;9.124;2023-02-28T02:00:42;97966.00;;;-2.79;100.00
55914;BME280;58179;48.776;9.124;2023-02-28T02:03:11;97961.78;;;-2.80;100.00
55914;BME280;58179;48.776;9.124;2023-02-28T02:05:40;97963.25;;;-2.77;100.00
55914;BME280;58179;48.776;9.124;2023-02-28T02:08:09;97963.25;;;-2.77;100.00
55914;BME280;58179;48.776;9.124;2023-02-28T02:10:42;97962.44;;;-2.78;100.00
55914;BME280;58179;48.776;9.124;2023-02-28T02:13:38;97965.00;;;-2.78;100.00
55914;BME280;58179;48.776;9.124;2023-02-28T02:16:21;97955.31;;;-2.76;100.00
55914;BME280;58179;48.776;9.124;2023-02-28T02:18:53;97957.91;;;-2.76;100.00
55914;BME280;58179;48.776;9.124;2023-02-28T02:25:05;97949.69;;;-2.71;100.00
55914;BME280;58179;48.776;9.124;2023-02-28T02:27:59;97951.81;;;-2.66;100.00
55914;BME280;58179;48.776;9.124;2023-02-28T02:30:59;97938.72;;;-2.65;100.00
55914;BME280;58179;48.776;9.124;2023-02-28T02:36:48;97942.75;;;-2.62;100.00
55914;BME280;58179;48.776;9.124;2023-02-28T02:39:23;97942.31;;;-2.58;100.00
55914;BME280;58179;48.776;9.124;2023-02-28T02:41:54;97940.38;;;-2.56;100.00
55914;BME280;58179;48.776;9.124;2023-02-28T02:44:26;97945.25;;;-2.53;100.00
55914;BME280;58179;48.776;9.124;2023-02-28T02:46:58;97946.56;;;-2.49;100.00
55914;BME280;58179;48.776;9.124;2023-02-28T02:49:32;97948.84;;;-2.46;100.00
55914;BME280;58179;48.776;9.124;2023-02-28T02:52:02;97949.19;;;-2.41;100.00
55914;BME280;58179;48.776;9.124;2023-02-28T02:54:32;97941.91;;;-2.37;100.00
55914;BME280;58179;48.776;9.124;2023-02-28T02:57:05;97946.13;;;-2.36;100.00
55914;BME280;58179;48.776;9.124;2023-02-28T02:59:36;97948.41;;;-2.33;100.00
55914;BME280;58179;48.776;9.124;2023-02-28T03:02:07;97946.47;;;-2.31;100.00
55914;BME280;58179;48.776;9.124;2023-02-28T03:04:43;97941.78;;;-2.27;100.00
55914;BME280;58179;48.776;9.124;2023-02-28T03:07:11;97938.88;;;-2.24;100.00
55914;BME280;58179;48.776;9.124;2023-02-28T03:09:37;97943.75;;;-2.21;100.00
55914;BME280;58179;48.776;9.124;2023-02-28T03:12:09;97947.00;;;-2.19;100.00
55914;BME280;58179;48.776;9.124;2023-02-28T03:14:47;97952.00;;;-2.18;100.00
55914;BME280;58179;48.776;9.124;2023-02-28T03:17:47;97951.88;;;-2.16;100.00
55914;BME280;58179;48.776;9.124;2023-02-28T03:20:32;97946.38;;;-2.13;100.00
55914;BME280;58179;48.776;9.124;2023-02-28T03:23:13;97948.00;;;-2.12;100.00
55914;BME280;58179;48.776;9.124;2023-02-28T03:25:54;97951.41;;;-2.12;100.00
55914;BME280;58179;48.776;9.124;2023-02-28T03:28:31;97953.66;;;-2.09;100.00
55914;BME280;58179;48.776;9.124;2023-02-28T03:31:06;97955.31;;;-2.08;100.00
55914;BME280;58179;48.776;9.124;2023-02-28T03:33:39;97949.16;;;-2.07;100.00
55914;BME280;58179;48.776;9.124;2023-02-28T03:36:12;97948.03;;;-2.04;100.00
55914;BME280;58179;48.776;9.124;2023-02-28T03:38:44;97952.25;;;-2.03;100.00
55914;BME280;58179;48.776;9.124;2023-02-28T03:41:15;97940.72;;;-2.01;100.00
55914;BME280;58179;48.776;9.124;2023-02-28T03:43:54;97941.41;;;-1.99;100.00
55914;BME280;58179;48.776;9.124;2023-02-28T03:46:25;97938.66;;;-1.97;100.00
55914;BME280;58179;48.776;9.124;2023-02-28T03:48:56;97946.28;;;-1.96;100.00
55914;BME280;58179;48.776;9.124;2023-02-28T03:51:27;97938.31;;;-1.94;100.00
55914;BME280;58179;48.776;9.124;2023-02-28T03:53:58;97941.72;;;-1.93;100.00
55914;BME280;58179;48.776;9.124;2023-02-28T03:56:31;97943.03;;;-1.89;100.00
55914;BME280;58179;48.776;9.124;2023-02-28T03:59:04;97948.03;;;-1.88;100.00
55914;BME280;58179;48.776;9.124;2023-02-28T04:01:35;97943.53;;;-1.86;100.00
55914;BME280;58179;48.776;9.124;2023-02-28T04:04:02;97944.19;;;-1.84;100.00
55914;BME280;58179;48.776;9.124;2023-02-28T04:06:32;97945.00;;;-1.83;100.00
55914;BME280;58179;48.776;9.124;2023-02-28T04:08:59;97950.19;;;-1.83;100.00
55914;BME280;58179;48.776;9.124;2023-02-28T04:11:32;97951.00;;;-1.83;100.00
55914;BME280;58179;48.776;9.124;2023-02-28T04:13:58;97949.69;;;-1.79;100.00
55914;BME280;58179;48.776;9.124;2023-02-28T04:16:25;97948.06;;;-1.80;100.00
55914;BME280;58179;48.776;9.124;2023-02-28T04:18:51;97948.88;;;-1.79;100.00
55914;BME280;58179;48.776;9.124;2023-02-28T04:21:16;97953.09;;;-1.78;100.00
55914;BME280;58179;48.776;9.124;2023-02-28T04:23:47;97950.50;;;-1.78;100.00
55914;BME280;58179;48.776;9.124;2023-02-28T04:26:13;97946.94;;;-1.77;100.00
55914;BME280;58179;48.776;9.124;2023-02-28T04:28:39;97950.50;;;-1.78;100.00
55914;BME280;58179;48.776;9.124;2023-02-28T04:31:05;97955.41;;;-1.75;100.00
55914;BME280;58179;48.776;9.124;2023-02-28T04:33:32;97948.56;;;-1.76;100.00
55914;BME280;58179;48.776;9.124;2023-02-28T04:36:00;97942.72;;;-1.78;100.00
55914;BME280;58179;48.776;9.124;2023-02-28T04:38:26;97940.94;;;-1.78;100.00
55914;BME280;58179;48.776;9.124;2023-02-28T04:40:53;97945.97;;;-1.76;100.00
55914;BME280;58179;48.776;9.124;2023-02-28T04:43:19;97943.22;;;-1.75;100.00
55914;BME280;58179;48.776;9.124;2023-02-28T04:45:45;97949.25;;;-1.74;100.00
55914;BME280;58179;48.776;9.124;2023-02-28T04:48:11;97949.06;;;-1.73;100.00
55914;BME280;58179;48.776;9.124;2023-02-28T04:50:36;97946.31;;;-1.71;100.00
55914;BME280;58179;48.776;9.124;2023-02-28T04:53:02;97948.91;;;-1.71;100.00
55914;BME280;58179;48.776;9.124;2023-02-28T04:55:28;97944.38;;;-1.69;100.00
55914;BME280;58179;48.776;9.124;2023-02-28T04:57:55;97940.47;;;-1.65;100.00
55914;BME280;58179;48.776;9.124;2023-02-28T05:00:21;97939.03;;;-1.68;100.00
55914;BME280;58179;48.776;9.124;2023-02-28T05:02:47;97943.88;;;-1.65;100.00
55914;BME280;58179;48.776;9.124;2023-02-28T05:05:13;97950.69;;;-1.64;100.00
55914;BME280;58179;48.776;9.124;2023-02-28T05:07:43;97940.31;;;-1.64;100.00
55914;BME280;58179;48.776;9.124;2023-02-28T05:10:11;97943.88;;;-1.65;100.00
55914;BME280;58179;48.776;9.124;2023-02-28T05:12:37;97936.91;;;-1.64;100.00
55914;BME280;58179;48.776;9.124;2023-02-28T05:15:05;97944.06;;;-1.66;100.00
55914;BME280;58179;48.776;9.124;2023-02-28T05:17:31;97947.47;;;-1.66;100.00
55914;BME280;58179;48.776;9.124;2023-02-28T05:19:57;97949.88;;;-1.64;100.00
55914;BME280;58179;48.776;9.124;2023-02-28T05:22:23;97949.56;;;-1.61;100.00
55914;BME280;58179;48.776;9.124;2023-02-28T05:24:49;97943.72;;;-1.63;100.00
55914;BME280;58179;48.776;9.124;2023-02-28T05:27:15;97953.94;;;-1.62;100.00
55914;BME280;58179;48.776;9.124;2023-02-28T05:29:41;97948.25;;;-1.65;100.00
55914;BME280;58179;48.776;9.124;2023-02-28T05:32:12;97956.25;;;-1.59;100.00
55914;BME280;58179;48.776;9.124;2023-02-28T05:34:39;97956.53;;;-1.62;100.00
55914;BME280;58179;48.776;9.124;2023-02-28T05:37:05;97948.75;;;-1.62;100.00
55914;BME280;58179;48.776;9.124;2023-02-28T05:39:31;97961.88;;;-1.63;100.00
55914;BME280;58179;48.776;9.124;2023-02-28T05:41:57;97951.50;;;-1.63;100.00
55914;BME280;58179;48.776;9.124;2023-02-28T05:44:22;97961.75;;;-1.62;100.00
55914;BME280;58179;48.776;9.124;2023-02-28T05:47:05;97962.56;;;-1.61;100.00
55914;BME280;58179;48.776;9.124;2023-02-28T05:49:35;97954.75;;;-1.61;100.00
55914;BME280;58179;48.776;9.124;2023-02-28T05:52:04;97961.44;;;-1.59;100.00
55914;BME280;58179;48.776;9.124;2023-02-28T05:54:30;97967.44;;;-1.58;100.00
55914;BME280;58179;48.776;9.124;2023-02-28T05:56:56;97961.25;;;-1.57;100.00
55914;BME280;58179;48.776;9.124;2023-02-28T05:59:22;97964.66;;;-1.57;100.00
55914;BME280;58179;48.776;9.124;2023-02-28T06:01:48;97968.88;;;-1.56;100.00
55914;BME280;58179;48.776;9.124;2023-02-28T06:04:17;97961.09;;;-1.56;100.00
55914;BME280;58179;48.776;9.124;2023-02-28T06:06:46;97962.88;;;-1.56;100.00
55914;BME280;58179;48.776;9.124;2023-02-28T06:09:12;97965.47;;;-1.56;100.00
55914;BME280;58179;48.776;9.124;2023-02-28T06:11:38;97965.63;;;-1.58;100.00
55914;BME280;58179;48.776;9.124;2023-02-28T06:14:05;97967.59;;;-1.60;100.00
55914;BME280;58179;48.776;9.124;2023-02-28T06:16:33;97966.63;;;-1.59;100.00
55914;BME280;58179;48.776;9.124;2023-02-28T06:19:02;97970.66;;;-1.56;100.00
55914;BME280;58179;48.776;9.124;2023-02-28T06:21:29;97967.91;;;-1.54;100.00
55914;BME280;58179;48.776;9.124;2023-02-28T06:23:58;97969.53;;;-1.53;100.00
55914;BME280;58179;48.776;9.124;2023-02-28T06:26:24;97976.34;;;-1.52;100.00
55914;BME280;58179;48.776;9.124;2023-02-28T06:28:52;97971.97;;;-1.52;100.00
55914;BME280;58179;48.776;9.124;2023-02-28T06:31:19;97985.59;;;-1.50;100.00
55914;BME280;58179;48.776;9.124;2023-02-28T06:33:45;97981.22;;;-1.49;100.00
55914;BME280;58179;48.776;9.124;2023-02-28T06:36:13;97982.84;;;-1.48;100.00
55914;BME280;58179;48.776;9.124;2023-02-28T06:38:40;97987.56;;;-1.44;100.00
55914;BME280;58179;48.776;9.124;2023-02-28T06:41:08;97986.75;;;-1.44;100.00
55914;BME280;58179;48.776;9.124;2023-02-28T06:43:37;97989.34;;;-1.44;100.00
55914;BME280;58179;48.776;9.124;2023-02-28T06:46:07;98002.97;;;-1.42;100.00
55914;BME280;58179;48.776;9.124;2023-02-28T06:48:34;97992.56;;;-1.42;100.00
55914;BME280;58179;48.776;9.124;2023-02-28T06:51:07;97983.19;;;-1.43;100.00
55914;BME280;58179;48.776;9.124;2023-02-28T06:53:34;97984.78;;;-1.42;100.00
55914;BME280;58179;48.776;9.124;2023-02-28T06:56:04;97990.63;;;-1.40;100.00
55914;BME280;58179;48.776;9.124;2023-02-28T06:58:32;97993.09;;;-1.39;100.00
55914;BME280;58179;48.776;9.124;2023-02-28T07:00:59;97996.81;;;-1.41;100.00
55914;BME280;58179;48.776;9.124;2023-02-28T07:03:25;97992.13;;;-1.38;100.00
55914;BME280;58179;48.776;9.124;2023-02-28T07:05:51;97994.38;;;-1.35;100.00
55914;BME280;58179;48.776;9.124;2023-02-28T07:08:17;97992.28;;;-1.31;100.00
55914;BME280;58179;48.776;9.124;2023-02-28T07:10:43;98003.47;;;-1.31;100.00
55914;BME280;58179;48.776;9.124;2023-02-28T07:13:10;97999.09;;;-1.30;100.00
55914;BME280;58179;48.776;9.124;2023-02-28T07:15:37;98007.56;;;-1.28;100.00
55914;BME280;58179;48.776;9.124;2023-02-28T07:18:04;98010.78;;;-1.26;100.00
55914;BME280;58179;48.776;9.124;2023-02-28T07:20:30;98016.94;;;-1.27;100.00
55914;BME280;58179;48.776;9.124;2023-02-28T07:22:56;98006.25;;;-1.24;100.00
55914;BME280;58179;48.776;9.124;2023-02-28T07:25:22;98015.50;;;-1.22;100.00
55914;BME280;58179;48.776;9.124;2023-02-28T07:27:49;98009.16;;;-1.19;100.00
55914;BME280;58179;48.776;9.124;2023-02-28T07:30:15;98009.00;;;-1.18;100.00
55914;BME280;58179;48.776;9.124;2023-02-28T07:32:43;98013.22;;;-1.17;100.00
55914;BME280;58179;48.776;9.124;2023-02-28T07:35:09;98017.13;;;-1.12;100.00
55914;BME280;58179;48.776;9.124;2023-02-28T07:37:35;98010.94;;;-1.11;100.00
55914;BME280;58179;48.776;9.124;2023-02-28T07:40:05;98012.91;;;-1.13;100.00
55914;BME280;58179;48.776;9.124;2023-02-28T07:42:33;98016.00;;;-1.10;100.00
55914;BME280;58179;48.776;9.124;2023-02-28T07:44:59;98017.63;;;-1.09;100.00
55914;BME280;58179;48.776;9.124;2023-02-28T07:47:25;98019.91;;;-1.06;100.00
55914;BME280;58179;48.776;9.124;2023-02-28T07:49:53;98016.16;;;-1.03;100.00
55914;BME280;58179;48.776;9.124;2023-02-28T07:52:18;98018.75;;;-1.03;100.00
55914;BME280;58179;48.776;9.124;2023-02-28T07:54:44;98025.41;;;-1.01;100.00
55914;BME280;58179;48.776;9.124;2023-02-28T07:57:10;98024.28;;;-0.98;100.00
55914;BME280;58179;48.776;9.124;2023-02-28T07:59:36;98025.09;;;-0.98;100.00
55914;BME280;58179;48.776;9.124;2023-02-28T08:02:02;98026.69;;;-0.97;100.00
55914;BME280;58179;48.776;9.124;2023-02-28T08:04:28;98024.44;;;-0.92;100.00
55914;BME280;58179;48.776;9.124;2023-02-28T08:06:58;98027.50;;;-0.88;100.00
55914;BME280;58179;48.776;9.124;2023-02-28T08:09:24;98027.84;;;-0.83;100.00
55914;BME280;58179;48.776;9.124;2023-02-28T08:11:50;98034.66;;;-0.82;100.00
55914;BME280;58179;48.776;9.124;2023-02-28T08:14:16;98032.25;;;-0.84;100.00
55914;BME280;58179;48.776;9.124;2023-02-28T08:16:42;98033.22;;;-0.76;100.00
55914;BME280;58179;48.776;9.124;2023-02-28T08:19:11;98032.41;;;-0.69;100.00
55914;BME280;58179;48.776;9.124;2023-02-28T08:21:37;98034.66;;;-0.66;100.00
55914;BME280;58179;48.776;9.124;2023-02-28T08:24:06;98030.59;;;-0.60;100.00
55914;BME280;58179;48.776;9.124;2023-02-28T08:26:32;98026.84;;;-0.58;100.00
55914;BME280;58179;48.776;9.124;2023-02-28T08:28:58;98033.97;;;-0.52;100.00
55914;BME280;58179;48.776;9.124;2023-02-28T08:31:24;98027.13;;;-0.45;100.00
55914;BME280;58179;48.776;9.124;2023-02-28T08:33:50;98028.28;;;-0.47;100.00
55914;BME280;58179;48.776;9.124;2023-02-28T08:36:18;98029.72;;;-0.45;100.00
55914;BME280;58179;48.776;9.124;2023-02-28T08:38:44;98038.84;;;-0.41;100.00
55914;BME280;58179;48.776;9.124;2023-02-28T08:41:12;98039.50;;;-0.38;100.00
55914;BME280;58179;48.776;9.124;2023-02-28T08:43:39;98039.16;;;-0.35;100.00
55914;BME280;58179;48.776;9.124;2023-02-28T08:46:06;98037.34;;;-0.35;100.00
55914;BME280;58179;48.776;9.124;2023-02-28T08:48:35;98031.84;;;-0.32;100.00
55914;BME280;58179;48.776;9.124;2023-02-28T08:51:05;98041.44;;;-0.32;100.00
55914;BME280;58179;48.776;9.124;2023-02-28T08:53:32;98042.88;;;-0.30;100.00
55914;BME280;58179;48.776;9.124;2023-02-28T08:55:59;98038.31;;;-0.28;100.00
55914;BME280;58179;48.776;9.124;2023-02-28T08:58:27;98051.81;;;-0.24;100.00
55914;BME280;58179;48.776;9.124;2023-02-28T09:00:54;98055.56;;;-0.27;100.00
55914;BME280;58179;48.776;9.124;2023-02-28T09:03:20;98056.84;;;-0.23;100.00
55914;BME280;58179;48.776;9.124;2023-02-28T09:05:55;98053.75;;;-0.26;100.00
55914;BME280;58179;48.776;9.124;2023-02-28T09:08:21;98062.06;;;-0.23;100.00
55914;BME280;58179;48.776;9.124;2023-02-28T09:10:47;98054.72;;;-0.19;100.00
55914;BME280;58179;48.776;9.124;2023-02-28T09:13:13;98055.22;;;-0.16;100.00
55914;BME280;58179;48.776;9.124;2023-02-28T09:15:41;98050.19;;;-0.25;100.00
55914;BME280;58179;48.776;9.124;2023-02-28T09:18:07;98053.75;;;-0.18;100.00
55914;BME280;58179;48.776;9.124;2023-02-28T09:20:33;98056.34;;;-0.10;100.00
55914;BME280;58179;48.776;9.124;2023-02-28T09:22:58;98054.19;;;-0.07;100.00
55914;BME280;58179;48.776;9.124;2023-02-28T09:25:24;98054.53;;;-0.02;100.00
55914;BME280;58179;48.776;9.124;2023-02-28T09:27:50;98063.31;;;-0.03;100.00
55914;BME280;58179;48.776;9.124;2023-02-28T09:30:17;98060.19;;;0.02;100.00
55914;BME280;58179;48.776;9.124;2023-02-28T09:32:44;98058.69;;;0.08;100.00
55914;BME280;58179;48.776;9.124;2023-02-28T09:35:17;98068.63;;;0.12;100.00
55914;BME280;58179;48.776;9.124;2023-02-28T09:37:43;98054.75;;;0.20;100.00
55914;BME280;58179;48.776;9.124;2023-02-28T09:40:11;98055.06;;;0.25;100.00
55914;BME280;58179;48.776;9.124;2023-02-28T09:42:37;98069.06;;;0.24;100.00
55914;BME280;58179;48.776;9.124;2023-02-28T09:45:13;98060.59;;;0.30;100.00
55914;BME280;58179;48.776;9.124;2023-02-28T09:47:47;98067.88;;;0.34;100.00
55914;BME280;58179;48.776;9.124;2023-02-28T09:50:22;98070.78;;;0.39;100.00
55914;BME280;58179;48.776;9.124;2023-02-28T09:52:54;98070.91;;;0.46;100.00
55914;BME280;58179;48.776;9.124;2023-02-28T09:55:28;98072.66;;;0.54;100.00
55914;BME280;58179;48.776;9.124;2023-02-28T09:57:56;98076.72;;;0.56;100.00
55914;BME280;58179;48.776;9.124;2023-02-28T10:00:30;98069.19;;;0.61;100.00
55914;BME280;58179;48.776;9.124;2023-02-28T10:03:25;98066.44;;;0.63;100.00
55914;BME280;58179;48.776;9.124;2023-02-28T10:05:59;98066.72;;;0.68;100.00
55914;BME280;58179;48.776;9.124;2023-02-28T10:08:33;98069.81;;;0.71;100.00
55914;BME280;58179;48.776;9.124;2023-02-28T10:11:06;98070.75;;;0.78;100.00
55914;BME280;58179;48.776;9.124;2023-02-28T10:13:36;98073.63;;;0.84;100.00
55914;BME280;58179;48.776;9.124;2023-02-28T10:16:09;98068.56;;;0.90;100.00
55914;BME280;58179;48.776;9.124;2023-02-28T10:18:46;98073.25;;;0.95;100.00
55914;BME280;58179;48.776;9.124;2023-02-28T10:21:21;98083.66;;;0.95;100.00
55914;BME280;58179;48.776;9.124;2023-02-28T10:23:49;98078.09;;;0.98;100.00
55914;BME280;58179;48.776;9.124;2023-02-28T10:26:18;98096.50;;;1.04;100.00
55914;BME280;58179;48.776;9.124;2023-02-28T10:28:44;98089.28;;;1.06;100.00
55914;BME280;58179;48.776;9.124;2023-02-28T10:31:14;98095.91;;;1.17;100.00
55914;BME280;58179;48.776;9.124;2023-02-28T10:33:45;98092.41;;;1.25;100.00
55914;BME280;58179;48.776;9.124;2023-02-28T10:36:15;98089.84;;;1.39;100.00
55914;BME280;58179;48.776;9.124;2023-02-28T10:38:43;98087.63;;;1.51;100.00
55914;BME280;58179;48.776;9.124;2023-02-28T10:41:12;98086.69;;;1.67;100.00
55914;BME280;58179;48.776;9.124;2023-02-28T10:43:41;98084.53;;;1.70;100.00
55914;BME280;58179;48.776;9.124;2023-02-28T10:46:14;98086.25;;;1.78;100.00
55914;BME280;58179;48.776;9.124;2023-02-28T10:49:02;98085.38;;;1.85;100.00
55914;BME280;58179;48.776;9.124;2023-02-28T10:51:36;98087.72;;;1.95;100.00
55914;BME280;58179;48.776;9.124;2023-02-28T10:54:03;98078.34;;;2.01;100.00
55914;BME280;58179;48.776;9.124;2023-02-28T10:56:30;98081.31;;;1.98;100.00
55914;BME280;58179;48.776;9.124;2023-02-28T10:58:59;98086.38;;;1.99;100.00
55914;BME280;58179;48.776;9.124;2023-02-28T11:01:36;98083.66;;;2.07;100.00
55914;BME280;58179;48.776;9.124;2023-02-28T11:04:18;98078.88;;;2.11;100.00
55914;BME280;58179;48.776;9.124;2023-02-28T11:06:45;98083.75;;;2.14;100.00
55914;BME280;58179;48.776;9.124;2023-02-28T11:09:22;98079.44;;;2.06;100.00
55914;BME280;58179;48.776;9.124;2023-02-28T11:11:50;98077.81;;;2.20;100.00
55914;BME280;58179;48.776;9.124;2023-02-28T11:14:21;98077.13;;;2.62;100.00
55914;BME280;58179;48.776;9.124;2023-02-28T11:16:48;98077.19;;;3.26;100.00
55914;BME280;58179;48.776;9.124;2023-02-28T11:19:22;98067.00;;;3.86;100.00
55914;BME280;58179;48.776;9.124;2023-02-28T11:21:54;98060.56;;;4.71;100.00
55914;BME280;58179;48.776;9.124;2023-02-28T11:24:26;98057.63;;;5.79;100.00
55914;BME280;58179;48.776;9.124;2023-02-28T11:26:53;98057.69;;;6.95;100.00
55914;BME280;58179;48.776;9.124;2023-02-28T11:29:23;98068.16;;;7.89;100.00
55914;BME280;58179;48.776;9.124;2023-02-28T11:32:15;98067.19;;;8.45;100.00
55914;BME280;58179;48.776;9.124;2023-02-28T11:34:44;98064.72;;;9.10;100.00
55914;BME280;58179;48.776;9.124;2023-02-28T11:37:13;98071.41;;;9.54;92.57
55914;BME280;58179;48.776;9.124;2023-02-28T11:39:40;98064.09;;;10.14;94.71
55914;BME280;58179;48.776;9.124;2023-02-28T11:42:44;98053.88;;;10.18;90.12
55914;BME280;58179;48.776;9.124;2023-02-28T11:45:36;98050.88;;;9.91;80.63
55914;BME280;58179;48.776;9.124;2023-02-28T11:48:16;98055.53;;;9.42;82.98
55914;BME280;58179;48.776;9.124;2023-02-28T11:50:58;98053.72;;;8.83;76.67
55914;BME280;58179;48.776;9.124;2023-02-28T11:53:55;98048.44;;;9.13;100.00
55914;BME280;58179;48.776;9.124;2023-02-28T11:56:31;98041.06;;;9.45;85.54
55914;BME280;58179;48.776;9.124;2023-02-28T11:59:13;98041.09;;;9.68;90.92
55914;BME280;58179;48.776;9.124;2023-02-28T12:02:05;98038.44;;;10.03;97.05
55914;BME280;58179;48.776;9.124;2023-02-28T12:04:41;98039.47;;;9.90;70.09
55914;BME280;58179;48.776;9.124;2023-02-28T12:07:20;98042.66;;;10.16;81.26
55914;BME280;58179;48.776;9.124;2023-02-28T12:09:57;98037.66;;;9.91;78.91
55914;BME280;58179;48.776;9.124;2023-02-28T12:12:39;98039.00;;;9.93;87.88
55914;BME280;58179;48.776;9.124;2023-02-28T12:15:28;98036.16;;;9.83;91.25
55914;BME280;58179;48.776;9.124;2023-02-28T12:18:24;98040.28;;;9.91;100.00
55914;BME280;58179;48.776;9.124;2023-02-28T12:20:58;98025.81;;;9.82;86.48
55914;BME280;58179;48.776;9.124;2023-02-28T12:23:59;98025.09;;;9.51;94.77
55914;BME280;58179;48.776;9.124;2023-02-28T12:29:02;98033.88;;;9.22;100.00
55914;BME280;58179;48.776;9.124;2023-02-28T12:31:33;98022.56;;;9.03;100.00
55914;BME280;58179;48.776;9.124;2023-02-28T12:34:06;98024.97;;;8.93;100.00
55914;BME280;58179;48.776;9.124;2023-02-28T12:36:34;98024.00;;;8.87;100.00
55914;BME280;58179;48.776;9.124;2023-02-28T12:39:08;98010.03;;;8.87;100.00
55914;BME280;58179;48.776;9.124;2023-02-28T12:41:41;98016.97;;;9.11;100.00
55914;BME280;58179;48.776;9.124;2023-02-28T12:44:12;98013.09;;;9.25;100.00
55914;BME280;58179;48.776;9.124;2023-02-28T12:46:42;98011.97;;;9.33;100.00
55914;BME280;58179;48.776;9.124;2023-02-28T12:49:15;98003.91;;;9.28;100.00
55914;BME280;58179;48.776;9.124;2023-02-28T12:51:44;98009.69;;;9.37;100.00
55914;BME280;58179;48.776;9.124;2023-02-28T12:54:19;97995.31;;;9.32;95.61
55914;BME280;58179;48.776;9.124;2023-02-28T12:56:53;98007.84;;;8.96;82.98
55914;BME280;58179;48.776;9.124;2023-02-28T12:59:26;97992.91;;;8.89;100.00
55914;BME280;58179;48.776;9.124;2023-02-28T13:02:17;97997.56;;;9.06;100.00
55914;BME280;58179;48.776;9.124;2023-02-28T13:05:39;98006.69;;;9.33;100.00
55914;BME280;58179;48.776;9.124;2023-02-28T13:08:49;97989.13;;;9.74;100.00
55914;BME280;58179;48.776;9.124;2023-02-28T13:11:29;97982.69;;;9.81;100.00
55914;BME280;58179;48.776;9.124;2023-02-28T13:14:02;97995.06;;;10.16;100.00
55914;BME280;58179;48.776;9.124;2023-02-28T13:16:59;97994.03;;;10.28;100.00
55914;BME280;58179;48.776;9.124;2023-02-28T13:19:27;98000.00;;;10.35;100.00